sensor_id;sensor_type;location;lat;lon;timestamp;P1;durP1;ratioP1;P2;durP2;ratioP2
66185;SDS011;58178;49.552;27.922;2022-08-21T00:00:28;8.10;;;2.60;;
66185;SDS011;58178;49.552;27.922;2022-08-21T00:02:59;7.60;;;2.90;;
66185;SDS011;58178;49.552;27.922;2022-08-21T00:05:27;7.97;;;2.50;;
66185;SDS011;58178;49.552;27.922;2022-08-21T00:07:54;9.45;;;2.80;;
66185;SDS011;58178;49.552;27.922;2022-08-21T00:10:23;5.53;;;2.17;;
66185;SDS011;58178;49.552;27.922;2022-08-21T00:12:49;8.18;;;2.40;;
66185;SDS011;58178;49.552;27.922;2022-08-21T00:15:18;10.07;;;2.70;;
66185;SDS011;58178;49.552;27.922;2022-08-21T00:17:47;7.95;;;2.60;;
66185;SDS011;58178;49.552;27.922;2022-08-21T00:20:14;9.13;;;2.88;;
66185;SDS011;58178;49.552;27.922;2022-08-21T00:22:40;10.75;;;3.28;;
66185;SDS011;58178;49.552;27.922;2022-08-21T00:25:07;11.02;;;2.42;;
66185;SDS011;58178;49.552;27.922;2022-08-21T00:27:33;8.63;;;2.42;;
66185;SDS011;58178;49.552;27.922;2022-08-21T00:29:59;9.90;;;2.10;;
66185;SDS011;58178;49.552;27.922;2022-08-21T00:32:26;13.00;;;6.72;;
66185;SDS011;58178;49.552;27.922;2022-08-21T00:34:52;7.85;;;2.72;;
66185;SDS011;58178;49.552;27.922;2022-08-21T00:37:18;8.90;;;2.20;;
66185;SDS011;58178;49.552;27.922;2022-08-21T00:39:44;6.47;;;2.72;;
66185;SDS011;58178;49.552;27.922;2022-08-21T00:42:10;7.72;;;2.38;;
66185;SDS011;58178;49.552;27.922;2022-08-21T00:44:41;7.50;;;1.90;;
66185;SDS011;58178;49.552;27.922;2022-08-21T00:47:07;14.85;;;2.88;;
66185;SDS011;58178;49.552;27.922;2022-08-21T00:49:33;9.93;;;3.10;;
66185;SDS011;58178;49.552;27.922;2022-08-21T00:51:59;7.60;;;2.75;;
66185;SDS011;58178;49.552;27.922;2022-08-21T00:54:27;13.77;;;3.30;;
66185;SDS011;58178;49.552;27.922;2022-08-21T00:57:11;17.73;;;5.85;;
66185;SDS011;58178;49.552;27.922;2022-08-21T00:59:44;11.32;;;3.03;;
66185;SDS011;58178;49.552;27.922;2022-08-21T01:02:11;9.25;;;2.90;;
66185;SDS011;58178;49.552;27.922;2022-08-21T01:04:37;12.93;;;3.30;;
66185;SDS011;58178;49.552;27.922;2022-08-21T01:07:03;11.25;;;3.10;;
66185;SDS011;58178;49.552;27.922;2022-08-21T01:09:30;15.40;;;4.20;;
66185;SDS011;58178;49.552;27.922;2022-08-21T01:11:56;7.65;;;2.83;;
66185;SDS011;58178;49.552;27.922;2022-08-21T01:14:21;9.95;;;2.17;;
66185;SDS011;58178;49.552;27.922;2022-08-21T01:16:48;7.43;;;2.17;;
66185;SDS011;58178;49.552;27.922;2022-08-21T01:19:16;9.00;;;2.45;;
66185;SDS011;58178;49.552;27.922;2022-08-21T01:21:42;6.30;;;2.10;;
66185;SDS011;58178;49.552;27.922;2022-08-21T01:24:08;7.07;;;2.17;;
66185;SDS011;58178;49.552;27.922;2022-08-21T01:26:35;16.33;;;3.17;;
66185;SDS011;58178;49.552;27.922;2022-08-21T01:29:15;10.82;;;3.17;;
66185;SDS011;58178;49.552;27.922;2022-08-21T01:31:42;9.77;;;3.50;;
66185;SDS011;58178;49.552;27.922;2022-08-21T01:34:08;8.85;;;2.42;;
66185;SDS011;58178;49.552;27.922;2022-08-21T01:36:34;14.55;;;2.60;;
66185;SDS011;58178;49.552;27.922;2022-08-21T01:39:00;10.27;;;3.17;;
66185;SDS011;58178;49.552;27.922;2022-08-21T01:41:26;13.27;;;3.05;;
66185;SDS011;58178;49.552;27.922;2022-08-21T01:43:52;9.23;;;2.97;;
66185;SDS011;58178;49.552;27.922;2022-08-21T01:46:18;9.10;;;2.88;;
66185;SDS011;58178;49.552;27.922;2022-08-21T01:48:43;11.02;;;2.33;;
66185;SDS011;58178;49.552;27.922;2022-08-21T01:51:09;11.65;;;2.50;;
66185;SDS011;58178;49.552;27.922;2022-08-21T01:53:35;8.55;;;3.00;;
66185;SDS011;58178;49.552;27.922;2022-08-21T01:56:03;8.35;;;2.85;;
66185;SDS011;58178;49.552;27.922;2022-08-21T01:58:30;8.65;;;2.83;;
66185;SDS011;58178;49.552;27.922;2022-08-21T02:00:56;8.30;;;2.47;;
66185;SDS011;58178;49.552;27.922;2022-08-21T02:03:22;7.47;;;2.30;;
66185;SDS011;58178;49.552;27.922;2022-08-21T02:05:47;8.23;;;2.40;;
66185;SDS011;58178;49.552;27.922;2022-08-21T02:08:13;10.50;;;2.40;;
66185;SDS011;58178;49.552;27.922;2022-08-21T02:10:39;7.75;;;2.33;;
66185;SDS011;58178;49.552;27.922;2022-08-21T02:13:06;10.85;;;2.60;;
66185;SDS011;58178;49.552;27.922;2022-08-21T02:15:32;6.72;;;2.38;;
66185;SDS011;58178;49.552;27.922;2022-08-21T02:17:59;8.48;;;2.70;;
66185;SDS011;58178;49.552;27.922;2022-08-21T02:20:27;7.68;;;2.45;;
66185;SDS011;58178;49.552;27.922;2022-08-21T02:22:53;10.13;;;2.22;;
66185;SDS011;58178;49.552;27.922;2022-08-21T02:25:20;7.70;;;2.17;;
66185;SDS011;58178;49.552;27.922;2022-08-21T02:27:47;8.10;;;2.35;;
66185;SDS011;58178;49.552;27.922;2022-08-21T02:30:20;12.85;;;3.75;;
66185;SDS011;58178;49.552;27.922;2022-08-21T02:32:51;7.40;;;2.70;;
66185;SDS011;58178;49.552;27.922;2022-08-21T02:35:17;9.50;;;3.20;;
66185;SDS011;58178;49.552;27.922;2022-08-21T02:37:54;9.27;;;2.72;;
66185;SDS011;58178;49.552;27.922;2022-08-21T02:40:22;8.20;;;2.42;;
66185;SDS011;58178;49.552;27.922;2022-08-21T02:42:51;6.38;;;2.47;;
66185;SDS011;58178;49.552;27.922;2022-08-21T02:45:17;7.32;;;2.65;;
66185;SDS011;58178;49.552;27.922;2022-08-21T02:47:47;17.50;;;3.42;;
66185;SDS011;58178;49.552;27.922;2022-08-21T02:50:22;14.25;;;5.13;;
66185;SDS011;58178;49.552;27.922;2022-08-21T02:52:50;10.82;;;2.95;;
66185;SDS011;58178;49.552;27.922;2022-08-21T02:55:17;12.70;;;2.42;;
66185;SDS011;58178;49.552;27.922;2022-08-21T02:57:43;10.00;;;2.45;;
66185;SDS011;58178;49.552;27.922;2022-08-21T03:00:09;6.97;;;2.10;;
66185;SDS011;58178;49.552;27.922;2022-08-21T03:02:36;10.85;;;2.53;;
66185;SDS011;58178;49.552;27.922;2022-08-21T03:05:03;6.95;;;2.40;;
66185;SDS011;58178;49.552;27.922;2022-08-21T03:07:29;9.07;;;2.80;;
66185;SDS011;58178;49.552;27.922;2022-08-21T03:09:55;9.02;;;2.30;;
66185;SDS011;58178;49.552;27.922;2022-08-21T03:12:21;13.50;;;3.50;;
66185;SDS011;58178;49.552;27.922;2022-08-21T03:14:47;10.93;;;2.78;;
66185;SDS011;58178;49.552;27.922;2022-08-21T03:17:13;23.40;;;4.70;;
66185;SDS011;58178;49.552;27.922;2022-08-21T03:19:39;16.23;;;6.50;;
66185;SDS011;58178;49.552;27.922;2022-08-21T03:22:05;11.98;;;3.75;;
66185;SDS011;58178;49.552;27.922;2022-08-21T03:24:31;7.85;;;2.38;;
66185;SDS011;58178;49.552;27.922;2022-08-21T03:26:57;11.57;;;2.60;;
66185;SDS011;58178;49.552;27.922;2022-08-21T03:29:22;20.20;;;3.78;;
66185;SDS011;58178;49.552;27.922;2022-08-21T03:31:48;9.57;;;2.70;;
66185;SDS011;58178;49.552;27.922;2022-08-21T03:34:14;10.65;;;2.88;;
66185;SDS011;58178;49.552;27.922;2022-08-21T03:36:40;10.57;;;2.85;;
66185;SDS011;58178;49.552;27.922;2022-08-21T03:39:05;10.77;;;3.40;;
66185;SDS011;58178;49.552;27.922;2022-08-21T03:41:31;10.27;;;2.95;;
66185;SDS011;58178;49.552;27.922;2022-08-21T03:43:57;10.95;;;3.30;;
66185;SDS011;58178;49.552;27.922;2022-08-21T03:46:24;7.05;;;2.42;;
66185;SDS011;58178;49.552;27.922;2022-08-21T03:48:49;10.77;;;4.07;;
66185;SDS011;58178;49.552;27.922;2022-08-21T03:51:17;8.68;;;2.40;;
66185;SDS011;58178;49.552;27.922;2022-08-21T03:53:43;12.50;;;2.60;;
66185;SDS011;58178;49.552;27.922;2022-08-21T03:56:10;8.07;;;2.70;;
66185;SDS011;58178;49.552;27.922;2022-08-21T03:58:36;9.70;;;3.40;;
66185;SDS011;58178;49.552;27.922;2022-08-21T04:01:03;8.25;;;2.40;;
66185;SDS011;58178;49.552;27.922;2022-08-21T04:03:29;7.32;;;2.53;;
66185;SDS011;58178;49.552;27.922;2022-08-21T04:05:55;11.00;;;2.15;;
66185;SDS011;58178;49.552;27.922;2022-08-21T04:08:21;7.13;;;2.50;;
66185;SDS011;58178;49.552;27.922;2022-08-21T04:10:47;8.35;;;1.90;;
66185;SDS011;58178;49.552;27.922;2022-08-21T04:13:15;6.15;;;1.90;;
66185;SDS011;58178;49.552;27.922;2022-08-21T04:15:40;7.20;;;2.30;;
66185;SDS011;58178;49.552;27.922;2022-08-21T04:18:06;8.95;;;1.85;;
66185;SDS011;58178;49.552;27.922;2022-08-21T04:20:33;9.68;;;2.15;;
66185;SDS011;58178;49.552;27.922;2022-08-21T04:23:00;7.75;;;1.90;;
66185;SDS011;58178;49.552;27.922;2022-08-21T04:25:27;8.52;;;1.88;;
66185;SDS011;58178;49.552;27.922;2022-08-21T04:27:53;7.72;;;1.98;;
66185;SDS011;58178;49.552;27.922;2022-08-21T04:30:19;8.60;;;2.00;;
66185;SDS011;58178;49.552;27.922;2022-08-21T04:32:46;5.20;;;1.80;;
66185;SDS011;58178;49.552;27.922;2022-08-21T04:35:13;8.15;;;2.30;;
66185;SDS011;58178;49.552;27.922;2022-08-21T04:37:41;7.65;;;2.00;;
66185;SDS011;58178;49.552;27.922;2022-08-21T04:40:07;8.23;;;2.30;;
66185;SDS011;58178;49.552;27.922;2022-08-21T04:42:40;9.00;;;2.00;;
66185;SDS011;58178;49.552;27.922;2022-08-21T04:45:17;7.80;;;1.88;;
66185;SDS011;58178;49.552;27.922;2022-08-21T04:47:45;5.68;;;1.75;;
66185;SDS011;58178;49.552;27.922;2022-08-21T04:50:12;7.47;;;2.00;;
66185;SDS011;58178;49.552;27.922;2022-08-21T04:52:38;13.13;;;2.08;;
66185;SDS011;58178;49.552;27.922;2022-08-21T04:55:04;11.45;;;1.92;;
66185;SDS011;58178;49.552;27.922;2022-08-21T04:57:30;6.80;;;2.50;;
66185;SDS011;58178;49.552;27.922;2022-08-21T04:59:56;5.85;;;1.73;;
66185;SDS011;58178;49.552;27.922;2022-08-21T05:02:21;12.02;;;2.45;;
66185;SDS011;58178;49.552;27.922;2022-08-21T05:04:51;9.60;;;2.10;;
66185;SDS011;58178;49.552;27.922;2022-08-21T05:07:19;7.55;;;2.08;;
66185;SDS011;58178;49.552;27.922;2022-08-21T05:09:48;4.07;;;1.60;;
66185;SDS011;58178;49.552;27.922;2022-08-21T05:12:14;5.07;;;1.92;;
66185;SDS011;58178;49.552;27.922;2022-08-21T05:14:40;10.27;;;1.85;;
66185;SDS011;58178;49.552;27.922;2022-08-21T05:17:07;9.15;;;2.25;;
66185;SDS011;58178;49.552;27.922;2022-08-21T05:19:33;5.97;;;2.00;;
66185;SDS011;58178;49.552;27.922;2022-08-21T05:21:59;6.75;;;1.88;;
66185;SDS011;58178;49.552;27.922;2022-08-21T05:24:26;8.07;;;1.90;;
66185;SDS011;58178;49.552;27.922;2022-08-21T05:26:52;8.02;;;2.33;;
66185;SDS011;58178;49.552;27.922;2022-08-21T05:29:17;8.85;;;1.88;;
66185;SDS011;58178;49.552;27.922;2022-08-21T05:31:44;6.80;;;1.80;;
66185;SDS011;58178;49.552;27.922;2022-08-21T05:34:10;5.22;;;1.60;;
66185;SDS011;58178;49.552;27.922;2022-08-21T05:36:36;7.07;;;1.52;;
66185;SDS011;58178;49.552;27.922;2022-08-21T05:39:02;3.67;;;1.52;;
66185;SDS011;58178;49.552;27.922;2022-08-21T05:41:28;6.07;;;1.67;;
66185;SDS011;58178;49.552;27.922;2022-08-21T05:43:54;5.78;;;1.80;;
66185;SDS011;58178;49.552;27.922;2022-08-21T05:46:19;6.93;;;1.73;;
66185;SDS011;58178;49.552;27.922;2022-08-21T05:48:45;8.25;;;2.05;;
66185;SDS011;58178;49.552;27.922;2022-08-21T05:51:12;8.07;;;1.80;;
66185;SDS011;58178;49.552;27.922;2022-08-21T05:53:39;9.02;;;1.60;;
66185;SDS011;58178;49.552;27.922;2022-08-21T05:56:07;8.13;;;1.95;;
66185;SDS011;58178;49.552;27.922;2022-08-21T05:58:33;5.85;;;1.90;;
66185;SDS011;58178;49.552;27.922;2022-08-21T06:00:59;7.10;;;2.03;;
66185;SDS011;58178;49.552;27.922;2022-08-21T06:03:28;5.15;;;1.60;;
66185;SDS011;58178;49.552;27.922;2022-08-21T06:05:55;8.82;;;2.17;;
66185;SDS011;58178;49.552;27.922;2022-08-21T06:08:22;7.65;;;1.70;;
66185;SDS011;58178;49.552;27.922;2022-08-21T06:10:49;7.50;;;2.20;;
66185;SDS011;58178;49.552;27.922;2022-08-21T06:13:16;7.50;;;1.98;;
66185;SDS011;58178;49.552;27.922;2022-08-21T06:15:43;6.15;;;1.50;;
66185;SDS011;58178;49.552;27.922;2022-08-21T06:18:08;3.80;;;1.27;;
66185;SDS011;58178;49.552;27.922;2022-08-21T06:20:34;4.82;;;1.42;;
66185;SDS011;58178;49.552;27.922;2022-08-21T06:23:00;7.03;;;1.80;;
66185;SDS011;58178;49.552;27.922;2022-08-21T06:25:26;5.38;;;1.85;;
66185;SDS011;58178;49.552;27.922;2022-08-21T06:27:52;6.40;;;2.08;;
66185;SDS011;58178;49.552;27.922;2022-08-21T06:30:18;7.30;;;1.90;;
66185;SDS011;58178;49.552;27.922;2022-08-21T06:32:44;6.22;;;1.55;;
66185;SDS011;58178;49.552;27.922;2022-08-21T06:35:10;5.85;;;1.55;;
66185;SDS011;58178;49.552;27.922;2022-08-21T06:37:36;8.15;;;1.95;;
66185;SDS011;58178;49.552;27.922;2022-08-21T06:40:05;8.10;;;2.05;;
66185;SDS011;58178;49.552;27.922;2022-08-21T06:42:32;5.68;;;1.90;;
66185;SDS011;58178;49.552;27.922;2022-08-21T06:44:57;5.30;;;1.70;;
66185;SDS011;58178;49.552;27.922;2022-08-21T06:47:23;7.50;;;1.60;;
66185;SDS011;58178;49.552;27.922;2022-08-21T06:49:49;5.65;;;1.90;;
66185;SDS011;58178;49.552;27.922;2022-08-21T06:52:14;6.93;;;2.03;;
66185;SDS011;58178;49.552;27.922;2022-08-21T06:54:40;6.47;;;1.95;;
66185;SDS011;58178;49.552;27.922;2022-08-21T06:57:06;7.00;;;1.70;;
66185;SDS011;58178;49.552;27.922;2022-08-21T06:59:32;6.90;;;1.90;;
66185;SDS011;58178;49.552;27.922;2022-08-21T07:01:58;5.80;;;1.80;;
66185;SDS011;58178;49.552;27.922;2022-08-21T07:04:24;6.93;;;1.67;;
66185;SDS011;58178;49.552;27.922;2022-08-21T07:06:50;5.95;;;2.00;;
66185;SDS011;58178;49.552;27.922;2022-08-21T07:09:16;6.93;;;1.65;;
66185;SDS011;58178;49.552;27.922;2022-08-21T07:11:41;4.50;;;1.67;;
66185;SDS011;58178;49.552;27.922;2022-08-21T07:14:16;4.93;;;1.52;;
66185;SDS011;58178;49.552;27.922;2022-08-21T07:16:41;4.07;;;1.30;;
66185;SDS011;58178;49.552;27.922;2022-08-21T07:19:07;4.07;;;1.70;;
66185;SDS011;58178;49.552;27.922;2022-08-21T07:21:33;6.70;;;1.52;;
66185;SDS011;58178;49.552;27.922;2022-08-21T07:23:58;7.72;;;1.65;;
66185;SDS011;58178;49.552;27.922;2022-08-21T07:26:24;6.78;;;1.42;;
66185;SDS011;58178;49.552;27.922;2022-08-21T07:28:51;5.78;;;1.33;;
66185;SDS011;58178;49.552;27.922;2022-08-21T07:31:18;5.43;;;1.50;;
66185;SDS011;58178;49.552;27.922;2022-08-21T07:33:46;10.38;;;2.53;;
66185;SDS011;58178;49.552;27.922;2022-08-21T07:36:12;5.35;;;1.70;;
66185;SDS011;58178;49.552;27.922;2022-08-21T07:38:38;6.65;;;1.70;;
66185;SDS011;58178;49.552;27.922;2022-08-21T07:41:21;4.20;;;1.35;;
66185;SDS011;58178;49.552;27.922;2022-08-21T07:43:49;5.68;;;1.50;;
66185;SDS011;58178;49.552;27.922;2022-08-21T07:46:15;3.90;;;1.30;;
66185;SDS011;58178;49.552;27.922;2022-08-21T07:48:41;4.25;;;1.20;;
66185;SDS011;58178;49.552;27.922;2022-08-21T07:51:09;7.95;;;1.58;;
66185;SDS011;58178;49.552;27.922;2022-08-21T07:53:37;7.28;;;1.35;;
66185;SDS011;58178;49.552;27.922;2022-08-21T07:56:06;8.57;;;1.80;;
66185;SDS011;58178;49.552;27.922;2022-08-21T07:58:33;7.28;;;1.63;;
66185;SDS011;58178;49.552;27.922;2022-08-21T08:00:59;6.15;;;1.55;;
66185;SDS011;58178;49.552;27.922;2022-08-21T08:03:25;6.70;;;1.60;;
66185;SDS011;58178;49.552;27.922;2022-08-21T08:05:51;6.70;;;1.90;;
66185;SDS011;58178;49.552;27.922;2022-08-21T08:08:16;5.10;;;1.30;;
66185;SDS011;58178;49.552;27.922;2022-08-21T08:10:42;6.82;;;1.80;;
66185;SDS011;58178;49.552;27.922;2022-08-21T08:13:08;6.82;;;2.15;;
66185;SDS011;58178;49.552;27.922;2022-08-21T08:15:34;4.93;;;1.38;;
66185;SDS011;58178;49.552;27.922;2022-08-21T08:18:00;5.53;;;1.48;;
66185;SDS011;58178;49.552;27.922;2022-08-21T08:20:26;6.50;;;1.70;;
66185;SDS011;58178;49.552;27.922;2022-08-21T08:22:52;6.47;;;1.63;;
66185;SDS011;58178;49.552;27.922;2022-08-21T08:25:19;6.32;;;2.15;;
66185;SDS011;58178;49.552;27.922;2022-08-21T08:27:48;4.93;;;1.98;;
66185;SDS011;58178;49.552;27.922;2022-08-21T08:30:15;8.32;;;2.25;;
66185;SDS011;58178;49.552;27.922;2022-08-21T08:32:43;7.82;;;1.52;;
66185;SDS011;58178;49.552;27.922;2022-08-21T08:35:09;7.93;;;1.95;;
66185;SDS011;58178;49.552;27.922;2022-08-21T08:37:37;5.22;;;1.42;;
66185;SDS011;58178;49.552;27.922;2022-08-21T08:40:05;5.65;;;1.60;;
66185;SDS011;58178;49.552;27.922;2022-08-21T08:42:34;4.15;;;1.30;;
66185;SDS011;58178;49.552;27.922;2022-08-21T08:47:38;6.93;;;1.48;;
66185;SDS011;58178;49.552;27.922;2022-08-21T08:50:19;12.45;;;2.20;;
66185;SDS011;58178;49.552;27.922;2022-08-21T08:52:57;4.85;;;1.75;;
66185;SDS011;58178;49.552;27.922;2022-08-21T08:55:32;5.32;;;1.83;;
66185;SDS011;58178;49.552;27.922;2022-08-21T08:58:01;4.40;;;1.35;;
66185;SDS011;58178;49.552;27.922;2022-08-21T09:00:28;2.95;;;0.95;;
66185;SDS011;58178;49.552;27.922;2022-08-21T09:02:55;6.40;;;1.25;;
66185;SDS011;58178;49.552;27.922;2022-08-21T09:05:26;4.35;;;1.60;;
66185;SDS011;58178;49.552;27.922;2022-08-21T09:27:11;4.10;;;1.38;;
66185;SDS011;58178;49.552;27.922;2022-08-21T09:29:41;5.75;;;1.60;;
66185;SDS011;58178;49.552;27.922;2022-08-21T09:32:31;5.57;;;1.63;;
66185;SDS011;58178;49.552;27.922;2022-08-21T09:35:00;3.22;;;0.98;;
66185;SDS011;58178;49.552;27.922;2022-08-21T09:37:53;7.18;;;1.30;;
66185;SDS011;58178;49.552;27.922;2022-08-21T09:40:37;5.85;;;1.08;;
66185;SDS011;58178;49.552;27.922;2022-08-21T09:45:37;4.03;;;1.00;;
66185;SDS011;58178;49.552;27.922;2022-08-21T09:48:11;4.68;;;0.98;;
66185;SDS011;58178;49.552;27.922;2022-08-21T09:50:38;4.78;;;1.00;;
66185;SDS011;58178;49.552;27.922;2022-08-21T09:53:03;4.53;;;1.23;;
66185;SDS011;58178;49.552;27.922;2022-08-21T09:55:32;6.57;;;1.90;;
66185;SDS011;58178;49.552;27.922;2022-08-21T09:58:18;4.65;;;1.50;;
66185;SDS011;58178;49.552;27.922;2022-08-21T10:00:45;3.65;;;0.98;;
66185;SDS011;58178;49.552;27.922;2022-08-21T10:03:21;3.30;;;0.85;;
66185;SDS011;58178;49.552;27.922;2022-08-21T10:05:55;3.10;;;1.00;;
66185;SDS011;58178;49.552;27.922;2022-08-21T10:08:23;4.07;;;0.90;;
66185;SDS011;58178;49.552;27.922;2022-08-21T10:10:53;5.25;;;1.60;;
66185;SDS011;58178;49.552;27.922;2022-08-21T10:24:29;3.50;;;1.17;;
66185;SDS011;58178;49.552;27.922;2022-08-21T10:35:22;7.13;;;1.83;;
66185;SDS011;58178;49.552;27.922;2022-08-21T10:38:58;6.50;;;1.50;;
66185;SDS011;58178;49.552;27.922;2022-08-21T10:57:35;5.50;;;1.00;;
66185;SDS011;58178;49.552;27.922;2022-08-21T11:00:35;7.00;;;1.42;;
66185;SDS011;58178;49.552;27.922;2022-08-21T11:03:07;5.90;;;1.30;;
66185;SDS011;58178;49.552;27.922;2022-08-21T11:05:52;5.25;;;1.38;;
66185;SDS011;58178;49.552;27.922;2022-08-21T11:11:15;5.53;;;1.58;;
66185;SDS011;58178;49.552;27.922;2022-08-21T11:13:57;5.28;;;2.03;;
66185;SDS011;58178;49.552;27.922;2022-08-21T11:19:12;10.75;;;1.95;;
66185;SDS011;58178;49.552;27.922;2022-08-21T11:21:43;5.32;;;1.40;;
66185;SDS011;58178;49.552;27.922;2022-08-21T11:29:41;8.45;;;1.70;;
66185;SDS011;58178;49.552;27.922;2022-08-21T11:35:32;4.70;;;1.27;;
66185;SDS011;58178;49.552;27.922;2022-08-21T11:38:45;6.78;;;2.03;;
66185;SDS011;58178;49.552;27.922;2022-08-21T11:41:18;10.80;;;1.98;;
66185;SDS011;58178;49.552;27.922;2022-08-21T11:43:47;6.18;;;1.33;;
66185;SDS011;58178;49.552;27.922;2022-08-21T11:46:29;6.40;;;1.65;;
66185;SDS011;58178;49.552;27.922;2022-08-21T11:52:36;4.72;;;1.35;;
66185;SDS011;58178;49.552;27.922;2022-08-21T11:55:12;4.70;;;1.40;;
66185;SDS011;58178;49.552;27.922;2022-08-21T11:57:52;6.78;;;2.10;;
66185;SDS011;58178;49.552;27.922;2022-08-21T12:00:23;7.45;;;1.38;;
66185;SDS011;58178;49.552;27.922;2022-08-21T12:02:56;6.30;;;1.60;;
66185;SDS011;58178;49.552;27.922;2022-08-21T12:05:35;7.90;;;1.65;;
66185;SDS011;58178;49.552;27.922;2022-08-21T12:10:36;4.95;;;1.30;;
66185;SDS011;58178;49.552;27.922;2022-08-21T12:13:07;7.80;;;1.48;;
66185;SDS011;58178;49.552;27.922;2022-08-21T12:15:36;8.35;;;1.30;;
66185;SDS011;58178;49.552;27.922;2022-08-21T12:18:04;7.13;;;1.50;;
66185;SDS011;58178;49.552;27.922;2022-08-21T12:24:05;7.45;;;2.05;;
66185;SDS011;58178;49.552;27.922;2022-08-21T12:26:34;10.30;;;1.90;;
66185;SDS011;58178;49.552;27.922;2022-08-21T12:29:05;9.07;;;2.00;;
66185;SDS011;58178;49.552;27.922;2022-08-21T12:31:47;7.03;;;1.10;;
66185;SDS011;58178;49.552;27.922;2022-08-21T12:34:16;7.18;;;2.03;;
66185;SDS011;58178;49.552;27.922;2022-08-21T12:36:44;7.15;;;1.35;;
66185;SDS011;58178;49.552;27.922;2022-08-21T12:39:15;8.38;;;1.70;;
66185;SDS011;58178;49.552;27.922;2022-08-21T12:41:49;6.65;;;1.50;;
66185;SDS011;58178;49.552;27.922;2022-08-21T12:44:21;7.70;;;1.50;;
66185;SDS011;58178;49.552;27.922;2022-08-21T12:46:58;7.85;;;1.60;;
66185;SDS011;58178;49.552;27.922;2022-08-21T12:49:30;6.03;;;1.58;;
66185;SDS011;58178;49.552;27.922;2022-08-21T12:52:19;8.00;;;1.67;;
66185;SDS011;58178;49.552;27.922;2022-08-21T12:54:46;4.60;;;1.25;;
66185;SDS011;58178;49.552;27.922;2022-08-21T12:57:20;6.43;;;1.77;;
66185;SDS011;58178;49.552;27.922;2022-08-21T12:59:55;8.77;;;1.42;;
66185;SDS011;58178;49.552;27.922;2022-08-21T13:02:23;6.20;;;1.63;;
66185;SDS011;58178;49.552;27.922;2022-08-21T13:04:51;8.77;;;1.77;;
66185;SDS011;58178;49.552;27.922;2022-08-21T13:07:22;7.75;;;1.92;;
66185;SDS011;58178;49.552;27.922;2022-08-21T13:09:56;8.02;;;1.38;;
66185;SDS011;58178;49.552;27.922;2022-08-21T13:12:28;9.05;;;1.80;;
66185;SDS011;58178;49.552;27.922;2022-08-21T13:14:58;11.23;;;4.47;;
66185;SDS011;58178;49.552;27.922;2022-08-21T13:17:30;9.65;;;1.77;;
66185;SDS011;58178;49.552;27.922;2022-08-21T13:20:02;8.77;;;1.42;;
66185;SDS011;58178;49.552;27.922;2022-08-21T13:22:39;7.40;;;1.77;;
66185;SDS011;58178;49.552;27.922;2022-08-21T13:25:09;6.63;;;1.65;;
66185;SDS011;58178;49.552;27.922;2022-08-21T13:27:40;5.47;;;1.50;;
66185;SDS011;58178;49.552;27.922;2022-08-21T13:30:20;6.50;;;1.80;;
66185;SDS011;58178;49.552;27.922;2022-08-21T13:32:48;7.32;;;1.92;;
66185;SDS011;58178;49.552;27.922;2022-08-21T13:35:17;6.18;;;1.25;;
66185;SDS011;58178;49.552;27.922;2022-08-21T13:37:46;5.18;;;1.35;;
66185;SDS011;58178;49.552;27.922;2022-08-21T13:40:17;8.15;;;1.85;;
66185;SDS011;58178;49.552;27.922;2022-08-21T13:42:46;8.50;;;2.25;;
66185;SDS011;58178;49.552;27.922;2022-08-21T13:48:02;8.07;;;2.05;;
66185;SDS011;58178;49.552;27.922;2022-08-21T13:50:28;10.40;;;2.35;;
66185;SDS011;58178;49.552;27.922;2022-08-21T13:52:56;8.63;;;1.98;;
66185;SDS011;58178;49.552;27.922;2022-08-21T13:55:40;7.97;;;1.63;;
66185;SDS011;58178;49.552;27.922;2022-08-21T13:58:08;7.70;;;1.77;;
66185;SDS011;58178;49.552;27.922;2022-08-21T14:00:43;7.28;;;1.65;;
66185;SDS011;58178;49.552;27.922;2022-08-21T14:03:23;11.05;;;1.67;;
66185;SDS011;58178;49.552;27.922;2022-08-21T14:06:37;9.77;;;2.00;;
66185;SDS011;58178;49.552;27.922;2022-08-21T14:09:07;7.38;;;1.90;;
66185;SDS011;58178;49.552;27.922;2022-08-21T14:11:35;4.57;;;1.30;;
66185;SDS011;58178;49.552;27.922;2022-08-21T14:14:06;9.50;;;1.70;;
66185;SDS011;58178;49.552;27.922;2022-08-21T14:16:45;4.68;;;1.15;;
66185;SDS011;58178;49.552;27.922;2022-08-21T14:19:20;5.13;;;1.23;;
66185;SDS011;58178;49.552;27.922;2022-08-21T14:21:47;6.80;;;1.50;;
66185;SDS011;58178;49.552;27.922;2022-08-21T14:24:14;7.47;;;1.30;;
66185;SDS011;58178;49.552;27.922;2022-08-21T14:27:24;5.75;;;1.45;;
66185;SDS011;58178;49.552;27.922;2022-08-21T14:29:44;5.90;;;1.30;;
66185;SDS011;58178;49.552;27.922;2022-08-21T14:32:14;9.25;;;1.85;;
66185;SDS011;58178;49.552;27.922;2022-08-21T14:34:43;6.22;;;1.52;;
66185;SDS011;58178;49.552;27.922;2022-08-21T14:37:08;7.43;;;1.67;;
66185;SDS011;58178;49.552;27.922;2022-08-21T14:39:34;8.88;;;1.48;;
66185;SDS011;58178;49.552;27.922;2022-08-21T14:42:00;7.20;;;1.60;;
66185;SDS011;58178;49.552;27.922;2022-08-21T14:44:26;7.63;;;1.48;;
66185;SDS011;58178;49.552;27.922;2022-08-21T14:46:53;5.60;;;1.50;;
66185;SDS011;58178;49.552;27.922;2022-08-21T14:49:20;6.13;;;1.50;;
66185;SDS011;58178;49.552;27.922;2022-08-21T14:51:46;10.65;;;1.45;;
66185;SDS011;58178;49.552;27.922;2022-08-21T14:54:12;9.02;;;1.60;;
66185;SDS011;58178;49.552;27.922;2022-08-21T14:56:38;6.25;;;1.38;;
66185;SDS011;58178;49.552;27.922;2022-08-21T14:59:05;5.80;;;1.20;;
66185;SDS011;58178;49.552;27.922;2022-08-21T15:01:33;5.38;;;1.50;;
66185;SDS011;58178;49.552;27.922;2022-08-21T15:04:00;7.20;;;1.63;;
66185;SDS011;58178;49.552;27.922;2022-08-21T15:06:26;7.60;;;1.92;;
66185;SDS011;58178;49.552;27.922;2022-08-21T15:08:52;8.75;;;1.58;;
66185;SDS011;58178;49.552;27.922;2022-08-21T15:11:19;7.53;;;1.63;;
66185;SDS011;58178;49.552;27.922;2022-08-21T15:13:45;4.97;;;1.00;;
66185;SDS011;58178;49.552;27.922;2022-08-21T15:16:12;4.53;;;1.50;;
66185;SDS011;58178;49.552;27.922;2022-08-21T15:18:38;5.95;;;1.25;;
66185;SDS011;58178;49.552;27.922;2022-08-21T15:21:04;5.75;;;1.70;;
66185;SDS011;58178;49.552;27.922;2022-08-21T15:23:30;9.98;;;1.80;;
66185;SDS011;58178;49.552;27.922;2022-08-21T15:25:56;6.38;;;1.30;;
66185;SDS011;58178;49.552;27.922;2022-08-21T15:28:22;6.30;;;1.52;;
66185;SDS011;58178;49.552;27.922;2022-08-21T15:30:48;8.20;;;1.73;;
66185;SDS011;58178;49.552;27.922;2022-08-21T15:33:15;6.78;;;1.45;;
66185;SDS011;58178;49.552;27.922;2022-08-21T15:35:42;10.07;;;1.85;;
66185;SDS011;58178;49.552;27.922;2022-08-21T15:38:08;6.50;;;1.63;;
66185;SDS011;58178;49.552;27.922;2022-08-21T15:40:35;7.80;;;1.63;;
66185;SDS011;58178;49.552;27.922;2022-08-21T15:43:02;10.43;;;1.80;;
66185;SDS011;58178;49.552;27.922;2022-08-21T15:45:28;6.35;;;1.70;;
66185;SDS011;58178;49.552;27.922;2022-08-21T15:47:54;9.48;;;2.25;;
66185;SDS011;58178;49.552;27.922;2022-08-21T15:50:21;7.50;;;1.48;;
66185;SDS011;58178;49.552;27.922;2022-08-21T15:52:48;8.82;;;1.85;;
66185;SDS011;58178;49.552;27.922;2022-08-21T15:55:14;7.95;;;1.75;;
66185;SDS011;58178;49.552;27.922;2022-08-21T15:57:47;7.57;;;1.40;;
66185;SDS011;58178;49.552;27.922;2022-08-21T16:00:19;9.25;;;1.52;;
66185;SDS011;58178;49.552;27.922;2022-08-21T16:02:49;9.00;;;1.67;;
66185;SDS011;58178;49.552;27.922;2022-08-21T16:05:17;6.15;;;1.40;;
66185;SDS011;58178;49.552;27.922;2022-08-21T16:07:43;11.05;;;1.52;;
66185;SDS011;58178;49.552;27.922;2022-08-21T16:10:10;5.28;;;1.48;;